sensor_id;sensor_type;location;lat;lon;timestamp;temperature;humidity
40960;DHT22;27842;52.272;8.052;2022-07-05T00:00:38;20.10;62.90
40960;DHT22;27842;52.272;8.052;2022-07-05T00:03:04;20.10;62.90
40960;DHT22;27842;52.272;8.052;2022-07-05T00:05:30;20.00;63.00
40960;DHT22;27842;52.272;8.052;2022-07-05T00:07:55;20.00;63.00
40960;DHT22;27842;52.272;8.052;2022-07-05T00:10:21;19.90;63.00
40960;DHT22;27842;52.272;8.052;2022-07-05T00:12:46;19.90;63.20
40960;DHT22;27842;52.272;8.052;2022-07-05T00:15:12;19.90;63.30
40960;DHT22;27842;52.272;8.052;2022-07-05T00:17:38;19.80;63.30
40960;DHT22;27842;52.272;8.052;2022-07-05T00:20:04;19.80;63.40
40960;DHT22;27842;52.272;8.052;2022-07-05T00:22:30;19.70;63.50
40960;DHT22;27842;52.272;8.052;2022-07-05T00:24:55;19.70;63.60
40960;DHT22;27842;52.272;8.052;2022-07-05T00:27:21;19.70;63.70
40960;DHT22;27842;52.272;8.052;2022-07-05T00:29:46;19.70;63.80
40960;DHT22;27842;52.272;8.052;2022-07-05T00:32:12;19.60;63.90
40960;DHT22;27842;52.272;8.052;2022-07-05T00:34:37;19.60;64.00
40960;DHT22;27842;52.272;8.052;2022-07-05T00:37:03;19.50;64.10
40960;DHT22;27842;52.272;8.052;2022-07-05T00:39:29;19.40;64.20
40960;DHT22;27842;52.272;8.052;2022-07-05T00:41:54;19.40;64.40
40960;DHT22;27842;52.272;8.052;2022-07-05T00:44:40;19.30;64.60
40960;DHT22;27842;52.272;8.052;2022-07-05T00:47:08;19.30;65.20
40960;DHT22;27842;52.272;8.052;2022-07-05T00:49:35;19.20;64.90
40960;DHT22;27842;52.272;8.052;2022-07-05T00:52:02;19.20;65.10
40960;DHT22;27842;52.272;8.052;2022-07-05T00:54:28;19.20;65.20
40960;DHT22;27842;52.272;8.052;2022-07-05T00:56:55;19.10;65.30
40960;DHT22;27842;52.272;8.052;2022-07-05T00:59:21;19.10;65.40
40960;DHT22;27842;52.272;8.052;2022-07-05T01:01:47;19.20;65.40
40960;DHT22;27842;52.272;8.052;2022-07-05T01:04:13;19.20;65.40
40960;DHT22;27842;52.272;8.052;2022-07-05T01:06:40;19.20;65.40
40960;DHT22;27842;52.272;8.052;2022-07-05T01:09:09;19.20;65.40
40960;DHT22;27842;52.272;8.052;2022-07-05T01:11:35;19.10;65.50
40960;DHT22;27842;52.272;8.052;2022-07-05T01:14:01;19.10;65.50
40960;DHT22;27842;52.272;8.052;2022-07-05T01:16:27;19.10;65.60
40960;DHT22;27842;52.272;8.052;2022-07-05T01:18:53;19.10;65.70
40960;DHT22;27842;52.272;8.052;2022-07-05T01:21:21;19.00;65.70
40960;DHT22;27842;52.272;8.052;2022-07-05T01:23:48;19.00;65.90
40960;DHT22;27842;52.272;8.052;2022-07-05T01:26:15;19.00;66.00
40960;DHT22;27842;52.272;8.052;2022-07-05T01:28:41;19.00;65.90
40960;DHT22;27842;52.272;8.052;2022-07-05T01:31:06;19.00;66.00
40960;DHT22;27842;52.272;8.052;2022-07-05T01:33:32;18.90;65.90
40960;DHT22;27842;52.272;8.052;2022-07-05T01:35:58;18.90;66.00
40960;DHT22;27842;52.272;8.052;2022-07-05T01:38:27;18.80;66.10
40960;DHT22;27842;52.272;8.052;2022-07-05T01:40:53;18.80;66.30
40960;DHT22;27842;52.272;8.052;2022-07-05T01:43:20;18.70;66.50
40960;DHT22;27842;52.272;8.052;2022-07-05T01:45:49;18.60;66.70
40960;DHT22;27842;52.272;8.052;2022-07-05T01:48:18;18.60;66.80
40960;DHT22;27842;52.272;8.052;2022-07-05T01:53:32;18.50;66.90
40960;DHT22;27842;52.272;8.052;2022-07-05T01:55:59;18.50;67.10
40960;DHT22;27842;52.272;8.052;2022-07-05T01:58:25;18.50;67.20
40960;DHT22;27842;52.272;8.052;2022-07-05T02:00:53;18.50;67.30
40960;DHT22;27842;52.272;8.052;2022-07-05T02:03:20;18.40;67.30
40960;DHT22;27842;52.272;8.052;2022-07-05T02:05:46;18.30;67.30
40960;DHT22;27842;52.272;8.052;2022-07-05T02:08:13;18.40;67.40
40960;DHT22;27842;52.272;8.052;2022-07-05T02:10:39;18.40;67.50
40960;DHT22;27842;52.272;8.052;2022-07-05T02:13:05;18.30;67.60
40960;DHT22;27842;52.272;8.052;2022-07-05T02:15:32;18.30;67.70
40960;DHT22;27842;52.272;8.052;2022-07-05T02:17:59;18.20;67.80
40960;DHT22;27842;52.272;8.052;2022-07-05T02:20:26;18.20;68.00
40960;DHT22;27842;52.272;8.052;2022-07-05T02:22:52;18.20;68.10
40960;DHT22;27842;52.272;8.052;2022-07-05T02:25:17;18.20;68.10
40960;DHT22;27842;52.272;8.052;2022-07-05T02:27:43;18.10;68.20
40960;DHT22;27842;52.272;8.052;2022-07-05T02:30:09;18.10;68.20
40960;DHT22;27842;52.272;8.052;2022-07-05T02:32:35;18.10;68.30
40960;DHT22;27842;52.272;8.052;2022-07-05T02:35:01;18.00;68.40
40960;DHT22;27842;52.272;8.052;2022-07-05T02:37:27;18.00;68.40
40960;DHT22;27842;52.272;8.052;2022-07-05T02:39:54;18.00;68.50
40960;DHT22;27842;52.272;8.052;2022-07-05T02:42:19;18.10;68.60
40960;DHT22;27842;52.272;8.052;2022-07-05T02:44:45;18.10;68.60
40960;DHT22;27842;52.272;8.052;2022-07-05T02:47:10;18.00;68.50
40960;DHT22;27842;52.272;8.052;2022-07-05T02:49:36;18.00;68.60
40960;DHT22;27842;52.272;8.052;2022-07-05T02:52:01;18.00;68.60
40960;DHT22;27842;52.272;8.052;2022-07-05T02:54:27;18.00;68.70
40960;DHT22;27842;52.272;8.052;2022-07-05T02:56:52;17.90;68.80
40960;DHT22;27842;52.272;8.052;2022-07-05T02:59:18;18.00;68.80
40960;DHT22;27842;52.272;8.052;2022-07-05T03:01:43;18.00;68.70
40960;DHT22;27842;52.272;8.052;2022-07-05T03:04:09;18.00;68.60
40960;DHT22;27842;52.272;8.052;2022-07-05T03:06:36;18.10;68.60
40960;DHT22;27842;52.272;8.052;2022-07-05T03:09:01;18.00;68.60
40960;DHT22;27842;52.272;8.052;2022-07-05T03:11:27;18.00;68.60
40960;DHT22;27842;52.272;8.052;2022-07-05T03:13:53;18.00;68.60
40960;DHT22;27842;52.272;8.052;2022-07-05T03:16:18;18.00;68.70
40960;DHT22;27842;52.272;8.052;2022-07-05T03:18:44;18.00;68.80
40960;DHT22;27842;52.272;8.052;2022-07-05T03:21:09;18.00;68.80
40960;DHT22;27842;52.272;8.052;2022-07-05T03:23:35;17.90;68.90
40960;DHT22;27842;52.272;8.052;2022-07-05T03:26:01;17.90;68.90
40960;DHT22;27842;52.272;8.052;2022-07-05T03:28:26;17.90;69.00
40960;DHT22;27842;52.272;8.052;2022-07-05T03:30:52;17.90;69.10
40960;DHT22;27842;52.272;8.052;2022-07-05T03:33:17;17.90;69.10
40960;DHT22;27842;52.272;8.052;2022-07-05T03:35:43;17.80;69.30
40960;DHT22;27842;52.272;8.052;2022-07-05T03:38:08;17.80;69.40
40960;DHT22;27842;52.272;8.052;2022-07-05T03:40:34;17.70;69.40
40960;DHT22;27842;52.272;8.052;2022-07-05T03:42:59;17.70;69.50
40960;DHT22;27842;52.272;8.052;2022-07-05T03:45:25;17.70;69.50
40960;DHT22;27842;52.272;8.052;2022-07-05T03:47:51;17.70;69.50
40960;DHT22;27842;52.272;8.052;2022-07-05T03:50:16;17.70;69.50
40960;DHT22;27842;52.272;8.052;2022-07-05T03:52:42;17.70;69.50
40960;DHT22;27842;52.272;8.052;2022-07-05T03:55:08;17.70;69.50
40960;DHT22;27842;52.272;8.052;2022-07-05T03:57:33;17.70;69.50
40960;DHT22;27842;52.272;8.052;2022-07-05T03:59:59;17.70;69.70
40960;DHT22;27842;52.272;8.052;2022-07-05T04:02:24;17.70;69.80
40960;DHT22;27842;52.272;8.052;2022-07-05T04:04:50;17.70;69.70
40960;DHT22;27842;52.272;8.052;2022-07-05T04:07:16;17.70;69.70
40960;DHT22;27842;52.272;8.052;2022-07-05T04:09:41;17.70;69.70
40960;DHT22;27842;52.272;8.052;2022-07-05T04:12:07;17.70;69.80
40960;DHT22;27842;52.272;8.052;2022-07-05T04:14:33;17.60;69.90
40960;DHT22;27842;52.272;8.052;2022-07-05T04:16:58;17.70;70.00
40960;DHT22;27842;52.272;8.052;2022-07-05T04:19:24;17.70;70.00
40960;DHT22;27842;52.272;8.052;2022-07-05T04:21:49;17.70;70.00
40960;DHT22;27842;52.272;8.052;2022-07-05T04:24:15;17.70;70.00
40960;DHT22;27842;52.272;8.052;2022-07-05T04:26:41;17.70;70.00
40960;DHT22;27842;52.272;8.052;2022-07-05T04:29:06;17.70;70.00
40960;DHT22;27842;52.272;8.052;2022-07-05T04:31:32;17.80;70.00
40960;DHT22;27842;52.272;8.052;2022-07-05T04:33:58;17.70;70.00
40960;DHT22;27842;52.272;8.052;2022-07-05T04:36:23;17.80;70.10
40960;DHT22;27842;52.272;8.052;2022-07-05T04:38:49;17.80;70.10
40960;DHT22;27842;52.272;8.052;2022-07-05T04:41:14;17.80;70.10
40960;DHT22;27842;52.272;8.052;2022-07-05T04:43:40;17.80;70.20
40960;DHT22;27842;52.272;8.052;2022-07-05T04:46:05;17.80;70.20
40960;DHT22;27842;52.272;8.052;2022-07-05T04:48:31;17.90;70.20
40960;DHT22;27842;52.272;8.052;2022-07-05T04:50:57;17.80;70.10
40960;DHT22;27842;52.272;8.052;2022-07-05T04:53:23;17.80;70.20
40960;DHT22;27842;52.272;8.052;2022-07-05T04:55:48;17.90;70.30
40960;DHT22;27842;52.272;8.052;2022-07-05T04:58:14;17.80;70.20
40960;DHT22;27842;52.272;8.052;2022-07-05T05:00:39;17.90;70.20
40960;DHT22;27842;52.272;8.052;2022-07-05T05:03:05;17.90;70.40
40960;DHT22;27842;52.272;8.052;2022-07-05T05:05:30;17.90;70.30
40960;DHT22;27842;52.272;8.052;2022-07-05T05:07:56;17.90;70.40
40960;DHT22;27842;52.272;8.052;2022-07-05T05:10:22;18.00;70.40
40960;DHT22;27842;52.272;8.052;2022-07-05T05:12:48;18.00;70.40
40960;DHT22;27842;52.272;8.052;2022-07-05T05:15:13;18.00;70.40
40960;DHT22;27842;52.272;8.052;2022-07-05T05:17:41;18.00;70.50
40960;DHT22;27842;52.272;8.052;2022-07-05T05:20:17;18.10;70.50
40960;DHT22;27842;52.272;8.052;2022-07-05T05:22:43;18.10;70.50
40960;DHT22;27842;52.272;8.052;2022-07-05T05:25:10;18.10;70.60
40960;DHT22;27842;52.272;8.052;2022-07-05T05:27:44;18.20;70.60
40960;DHT22;27842;52.272;8.052;2022-07-05T05:30:11;18.20;70.50
40960;DHT22;27842;52.272;8.052;2022-07-05T05:32:37;18.20;70.40
40960;DHT22;27842;52.272;8.052;2022-07-05T05:35:03;18.20;70.90
40960;DHT22;27842;52.272;8.052;2022-07-05T05:37:29;18.30;70.60
40960;DHT22;27842;52.272;8.052;2022-07-05T05:39:55;18.30;70.60
40960;DHT22;27842;52.272;8.052;2022-07-05T05:42:20;18.30;70.60
40960;DHT22;27842;52.272;8.052;2022-07-05T05:44:46;18.40;70.50
40960;DHT22;27842;52.272;8.052;2022-07-05T05:47:11;18.50;70.50
40960;DHT22;27842;52.272;8.052;2022-07-05T05:49:37;18.50;70.40
40960;DHT22;27842;52.272;8.052;2022-07-05T05:52:02;18.60;70.40
40960;DHT22;27842;52.272;8.052;2022-07-05T05:54:28;18.70;70.50
40960;DHT22;27842;52.272;8.052;2022-07-05T05:56:53;18.60;70.30
40960;DHT22;27842;52.272;8.052;2022-07-05T05:59:19;18.70;70.30
40960;DHT22;27842;52.272;8.052;2022-07-05T06:01:45;18.70;70.40
40960;DHT22;27842;52.272;8.052;2022-07-05T06:04:10;18.80;70.30
40960;DHT22;27842;52.272;8.052;2022-07-05T06:06:36;18.80;71.00
40960;DHT22;27842;52.272;8.052;2022-07-05T06:09:02;18.80;70.80
40960;DHT22;27842;52.272;8.052;2022-07-05T06:11:27;18.90;70.40
40960;DHT22;27842;52.272;8.052;2022-07-05T06:13:53;18.90;70.40
40960;DHT22;27842;52.272;8.052;2022-07-05T06:16:18;18.90;70.20
40960;DHT22;27842;52.272;8.052;2022-07-05T06:18:44;18.90;70.20
40960;DHT22;27842;52.272;8.052;2022-07-05T06:21:09;19.00;70.20
40960;DHT22;27842;52.272;8.052;2022-07-05T06:23:35;19.00;70.30
40960;DHT22;27842;52.272;8.052;2022-07-05T06:26:00;19.00;70.30
40960;DHT22;27842;52.272;8.052;2022-07-05T06:28:26;19.10;70.30
40960;DHT22;27842;52.272;8.052;2022-07-05T06:30:51;19.10;70.20
40960;DHT22;27842;52.272;8.052;2022-07-05T06:33:18;19.10;70.10
40960;DHT22;27842;52.272;8.052;2022-07-05T06:35:44;19.20;70.10
40960;DHT22;27842;52.272;8.052;2022-07-05T06:38:09;19.20;70.40
40960;DHT22;27842;52.272;8.052;2022-07-05T06:40:37;19.20;70.20
40960;DHT22;27842;52.272;8.052;2022-07-05T06:43:05;19.20;70.20
40960;DHT22;27842;52.272;8.052;2022-07-05T06:45:31;19.30;70.10
40960;DHT22;27842;52.272;8.052;2022-07-05T06:47:57;19.20;70.00
40960;DHT22;27842;52.272;8.052;2022-07-05T06:50:24;19.30;70.00
40960;DHT22;27842;52.272;8.052;2022-07-05T06:52:49;19.30;70.10
40960;DHT22;27842;52.272;8.052;2022-07-05T06:55:15;19.30;70.00
40960;DHT22;27842;52.272;8.052;2022-07-05T06:57:40;19.40;70.10
40960;DHT22;27842;52.272;8.052;2022-07-05T07:00:06;19.40;70.00
40960;DHT22;27842;52.272;8.052;2022-07-05T07:02:32;19.40;70.10
40960;DHT22;27842;52.272;8.052;2022-07-05T07:04:59;19.40;70.00
40960;DHT22;27842;52.272;8.052;2022-07-05T07:07:24;19.40;69.90
40960;DHT22;27842;52.272;8.052;2022-07-05T07:10:09;19.40;69.90
40960;DHT22;27842;52.272;8.052;2022-07-05T07:12:34;19.50;69.80
40960;DHT22;27842;52.272;8.052;2022-07-05T07:15:00;19.50;69.80
40960;DHT22;27842;52.272;8.052;2022-07-05T07:17:26;19.60;69.70
40960;DHT22;27842;52.272;8.052;2022-07-05T07:19:52;19.70;69.60
40960;DHT22;27842;52.272;8.052;2022-07-05T07:22:17;19.70;69.60
40960;DHT22;27842;52.272;8.052;2022-07-05T07:24:43;19.80;69.60
40960;DHT22;27842;52.272;8.052;2022-07-05T07:27:09;19.90;69.10
40960;DHT22;27842;52.272;8.052;2022-07-05T07:29:35;20.10;68.60
40960;DHT22;27842;52.272;8.052;2022-07-05T07:32:02;20.20;68.30
40960;DHT22;27842;52.272;8.052;2022-07-05T07:34:29;20.30;68.00
40960;DHT22;27842;52.272;8.052;2022-07-05T07:36:55;20.40;67.70
40960;DHT22;27842;52.272;8.052;2022-07-05T07:39:22;20.50;67.50
40960;DHT22;27842;52.272;8.052;2022-07-05T07:41:48;20.60;67.20
40960;DHT22;27842;52.272;8.052;2022-07-05T07:44:13;20.60;67.00
40960;DHT22;27842;52.272;8.052;2022-07-05T07:46:39;20.70;66.70
40960;DHT22;27842;52.272;8.052;2022-07-05T07:49:05;20.70;66.70
40960;DHT22;27842;52.272;8.052;2022-07-05T07:51:32;20.80;66.60
40960;DHT22;27842;52.272;8.052;2022-07-05T07:53:57;20.90;66.40
40960;DHT22;27842;52.272;8.052;2022-07-05T07:56:23;21.00;66.10
40960;DHT22;27842;52.272;8.052;2022-07-05T07:58:48;21.10;65.90
40960;DHT22;27842;52.272;8.052;2022-07-05T08:01:14;21.20;65.40
40960;DHT22;27842;52.272;8.052;2022-07-05T08:03:40;21.20;64.40
40960;DHT22;27842;52.272;8.052;2022-07-05T08:06:07;21.30;64.40
40960;DHT22;27842;52.272;8.052;2022-07-05T08:08:34;21.40;63.90
40960;DHT22;27842;52.272;8.052;2022-07-05T08:11:00;21.50;63.10
40960;DHT22;27842;52.272;8.052;2022-07-05T08:13:25;21.60;62.70
40960;DHT22;27842;52.272;8.052;2022-07-05T08:15:52;21.60;62.30
40960;DHT22;27842;52.272;8.052;2022-07-05T08:18:17;21.60;61.90
40960;DHT22;27842;52.272;8.052;2022-07-05T08:21:02;21.70;61.30
40960;DHT22;27842;52.272;8.052;2022-07-05T08:23:46;21.80;60.80
40960;DHT22;27842;52.272;8.052;2022-07-05T08:26:12;21.80;61.00
40960;DHT22;27842;52.272;8.052;2022-07-05T08:28:38;21.80;61.00
40960;DHT22;27842;52.272;8.052;2022-07-05T08:31:03;21.80;60.80
40960;DHT22;27842;52.272;8.052;2022-07-05T08:33:29;21.70;60.50
40960;DHT22;27842;52.272;8.052;2022-07-05T08:35:54;21.70;61.00
40960;DHT22;27842;52.272;8.052;2022-07-05T08:38:20;21.70;60.60
40960;DHT22;27842;52.272;8.052;2022-07-05T08:40:50;21.80;60.30
40960;DHT22;27842;52.272;8.052;2022-07-05T08:43:17;21.80;60.30
40960;DHT22;27842;52.272;8.052;2022-07-05T08:45:44;21.80;60.00
40960;DHT22;27842;52.272;8.052;2022-07-05T08:48:10;21.80;60.00
40960;DHT22;27842;52.272;8.052;2022-07-05T08:50:43;21.90;59.70
40960;DHT22;27842;52.272;8.052;2022-07-05T08:53:09;21.90;59.40
40960;DHT22;27842;52.272;8.052;2022-07-05T08:55:35;22.10;59.30
40960;DHT22;27842;52.272;8.052;2022-07-05T08:58:01;22.20;58.80
40960;DHT22;27842;52.272;8.052;2022-07-05T09:00:27;22.10;58.80
40960;DHT22;27842;52.272;8.052;2022-07-05T09:02:53;22.10;59.00
40960;DHT22;27842;52.272;8.052;2022-07-05T09:05:19;22.00;59.30
40960;DHT22;27842;52.272;8.052;2022-07-05T09:07:59;22.10;58.90
40960;DHT22;27842;52.272;8.052;2022-07-05T09:10:29;22.20;58.90
40960;DHT22;27842;52.272;8.052;2022-07-05T09:12:56;22.30;58.70
40960;DHT22;27842;52.272;8.052;2022-07-05T09:15:23;22.40;57.90
40960;DHT22;27842;52.272;8.052;2022-07-05T09:17:49;22.50;57.50
40960;DHT22;27842;52.272;8.052;2022-07-05T09:20:18;22.50;57.90
40960;DHT22;27842;52.272;8.052;2022-07-05T09:22:45;22.40;57.70
40960;DHT22;27842;52.272;8.052;2022-07-05T09:25:20;22.40;58.00
40960;DHT22;27842;52.272;8.052;2022-07-05T09:28:01;22.40;56.00
40960;DHT22;27842;52.272;8.052;2022-07-05T09:33:15;22.30;58.20
40960;DHT22;27842;52.272;8.052;2022-07-05T09:35:42;22.30;58.20
40960;DHT22;27842;52.272;8.052;2022-07-05T09:38:20;22.30;58.30
40960;DHT22;27842;52.272;8.052;2022-07-05T09:40:47;22.30;57.90
40960;DHT22;27842;52.272;8.052;2022-07-05T09:43:16;22.30;57.80
40960;DHT22;27842;52.272;8.052;2022-07-05T09:45:57;22.20;57.80
40960;DHT22;27842;52.272;8.052;2022-07-05T09:48:24;22.20;57.50
40960;DHT22;27842;52.272;8.052;2022-07-05T09:50:50;22.10;58.20
40960;DHT22;27842;52.272;8.052;2022-07-05T09:53:17;22.30;58.10
40960;DHT22;27842;52.272;8.052;2022-07-05T09:56:02;22.40;57.80
40960;DHT22;27842;52.272;8.052;2022-07-05T09:58:28;22.40;56.60
40960;DHT22;27842;52.272;8.052;2022-07-05T10:00:54;22.40;57.50
40960;DHT22;27842;52.272;8.052;2022-07-05T10:03:20;22.40;57.50
40960;DHT22;27842;52.272;8.052;2022-07-05T10:05:46;22.40;57.40
40960;DHT22;27842;52.272;8.052;2022-07-05T10:08:12;22.40;57.10
40960;DHT22;27842;52.272;8.052;2022-07-05T10:10:39;22.30;57.40
40960;DHT22;27842;52.272;8.052;2022-07-05T10:13:06;22.30;57.30
40960;DHT22;27842;52.272;8.052;2022-07-05T10:15:33;22.30;57.50
40960;DHT22;27842;52.272;8.052;2022-07-05T10:18:03;22.30;56.80
40960;DHT22;27842;52.272;8.052;2022-07-05T10:20:43;22.40;57.30
40960;DHT22;27842;52.272;8.052;2022-07-05T10:23:14;22.40;56.20
40960;DHT22;27842;52.272;8.052;2022-07-05T10:25:41;22.40;56.90
40960;DHT22;27842;52.272;8.052;2022-07-05T10:28:08;22.40;56.90
40960;DHT22;27842;52.272;8.052;2022-07-05T10:30:34;22.40;56.90
40960;DHT22;27842;52.272;8.052;2022-07-05T10:33:06;22.50;56.50
40960;DHT22;27842;52.272;8.052;2022-07-05T10:35:32;22.40;56.50
40960;DHT22;27842;52.272;8.052;2022-07-05T10:37:58;22.40;56.60
40960;DHT22;27842;52.272;8.052;2022-07-05T10:40:25;22.50;56.50
40960;DHT22;27842;52.272;8.052;2022-07-05T10:42:55;22.60;56.50
40960;DHT22;27842;52.272;8.052;2022-07-05T10:45:25;22.70;56.40
40960;DHT22;27842;52.272;8.052;2022-07-05T10:53:14;23.20;55.60
40960;DHT22;27842;52.272;8.052;2022-07-05T11:00:41;23.20;55.40
40960;DHT22;27842;52.272;8.052;2022-07-05T11:06:01;23.20;55.20
40960;DHT22;27842;52.272;8.052;2022-07-05T11:08:28;23.30;55.90
40960;DHT22;27842;52.272;8.052;2022-07-05T11:11:13;23.40;54.70
40960;DHT22;27842;52.272;8.052;2022-07-05T11:13:41;23.40;53.20
40960;DHT22;27842;52.272;8.052;2022-07-05T11:18:52;23.40;54.90
40960;DHT22;27842;52.272;8.052;2022-07-05T11:21:19;23.40;55.10
40960;DHT22;27842;52.272;8.052;2022-07-05T11:23:45;23.30;55.10
40960;DHT22;27842;52.272;8.052;2022-07-05T11:26:12;23.30;55.10
40960;DHT22;27842;52.272;8.052;2022-07-05T11:28:42;23.30;55.20
40960;DHT22;27842;52.272;8.052;2022-07-05T11:31:09;23.40;55.20
40960;DHT22;27842;52.272;8.052;2022-07-05T11:33:41;23.60;55.10
40960;DHT22;27842;52.272;8.052;2022-07-05T11:36:24;23.80;55.10
40960;DHT22;27842;52.272;8.052;2022-07-05T11:39:15;24.00;54.20
40960;DHT22;27842;52.272;8.052;2022-07-05T11:41:44;24.10;53.40
40960;DHT22;27842;52.272;8.052;2022-07-05T11:44:10;24.10;54.30
40960;DHT22;27842;52.272;8.052;2022-07-05T11:46:37;24.10;54.30
40960;DHT22;27842;52.272;8.052;2022-07-05T11:49:03;24.20;54.20
40960;DHT22;27842;52.272;8.052;2022-07-05T11:51:30;24.20;54.20
40960;DHT22;27842;52.272;8.052;2022-07-05T11:53:56;24.30;53.70
40960;DHT22;27842;52.272;8.052;2022-07-05T11:56:21;24.40;54.40
40960;DHT22;27842;52.272;8.052;2022-07-05T11:58:47;24.40;53.60
40960;DHT22;27842;52.272;8.052;2022-07-05T12:01:12;24.40;53.20
40960;DHT22;27842;52.272;8.052;2022-07-05T12:03:38;24.40;53.20
40960;DHT22;27842;52.272;8.052;2022-07-05T12:06:13;24.50;53.40
40960;DHT22;27842;52.272;8.052;2022-07-05T12:08:39;24.60;53.30
40960;DHT22;27842;52.272;8.052;2022-07-05T12:11:05;24.80;53.10
40960;DHT22;27842;52.272;8.052;2022-07-05T12:13:50;24.90;52.80
40960;DHT22;27842;52.272;8.052;2022-07-05T12:16:16;25.10;52.70
40960;DHT22;27842;52.272;8.052;2022-07-05T12:18:55;25.20;52.60
40960;DHT22;27842;52.272;8.052;2022-07-05T12:21:23;25.40;52.10
40960;DHT22;27842;52.272;8.052;2022-07-05T12:23:50;25.60;51.80
40960;DHT22;27842;52.272;8.052;2022-07-05T12:26:17;25.80;51.60
40960;DHT22;27842;52.272;8.052;2022-07-05T12:28:43;25.90;51.30
40960;DHT22;27842;52.272;8.052;2022-07-05T12:31:22;25.90;50.70
40960;DHT22;27842;52.272;8.052;2022-07-05T12:33:50;25.90;50.30
40960;DHT22;27842;52.272;8.052;2022-07-05T12:36:18;25.90;51.80
40960;DHT22;27842;52.272;8.052;2022-07-05T12:38:45;25.90;51.00
40960;DHT22;27842;52.272;8.052;2022-07-05T12:41:11;25.90;51.20
40960;DHT22;27842;52.272;8.052;2022-07-05T12:43:54;26.00;51.10
40960;DHT22;27842;52.272;8.052;2022-07-05T12:46:21;26.10;51.20
40960;DHT22;27842;52.272;8.052;2022-07-05T12:49:00;26.30;51.00
40960;DHT22;27842;52.272;8.052;2022-07-05T12:51:37;26.50;50.50
40960;DHT22;27842;52.272;8.052;2022-07-05T12:54:06;26.60;50.30
40960;DHT22;27842;52.272;8.052;2022-07-05T12:56:54;26.70;50.30
40960;DHT22;27842;52.272;8.052;2022-07-05T12:59:39;26.80;50.10
40960;DHT22;27842;52.272;8.052;2022-07-05T13:02:07;27.00;49.10
40960;DHT22;27842;52.272;8.052;2022-07-05T13:04:33;27.00;49.80
40960;DHT22;27842;52.272;8.052;2022-07-05T13:07:01;26.90;49.20
40960;DHT22;27842;52.272;8.052;2022-07-05T13:12:15;26.50;49.40
40960;DHT22;27842;52.272;8.052;2022-07-05T13:14:42;26.30;45.10
40960;DHT22;27842;52.272;8.052;2022-07-05T13:17:10;26.20;49.60
40960;DHT22;27842;52.272;8.052;2022-07-05T13:19:38;26.10;49.90
40960;DHT22;27842;52.272;8.052;2022-07-05T13:22:04;26.00;49.80
40960;DHT22;27842;52.272;8.052;2022-07-05T13:24:30;25.90;50.10
40960;DHT22;27842;52.272;8.052;2022-07-05T13:26:56;25.80;50.10
40960;DHT22;27842;52.272;8.052;2022-07-05T13:29:23;25.90;49.80
40960;DHT22;27842;52.272;8.052;2022-07-05T13:31:48;25.90;49.80
40960;DHT22;27842;52.272;8.052;2022-07-05T13:34:14;25.80;49.90
40960;DHT22;27842;52.272;8.052;2022-07-05T13:36:40;25.70;49.70
40960;DHT22;27842;52.272;8.052;2022-07-05T13:39:05;25.50;50.00
40960;DHT22;27842;52.272;8.052;2022-07-05T13:41:31;25.40;50.00
40960;DHT22;27842;52.272;8.052;2022-07-05T13:43:57;25.30;50.30
40960;DHT22;27842;52.272;8.052;2022-07-05T13:46:23;25.30;50.50
40960;DHT22;27842;52.272;8.052;2022-07-05T13:48:49;25.20;50.40
40960;DHT22;27842;52.272;8.052;2022-07-05T13:51:14;25.20;50.60
40960;DHT22;27842;52.272;8.052;2022-07-05T13:53:40;25.20;50.70
40960;DHT22;27842;52.272;8.052;2022-07-05T13:56:06;25.30;50.60
40960;DHT22;27842;52.272;8.052;2022-07-05T13:58:32;25.30;50.50
40960;DHT22;27842;52.272;8.052;2022-07-05T14:00:59;25.20;50.60
40960;DHT22;27842;52.272;8.052;2022-07-05T14:03:25;25.20;50.70
40960;DHT22;27842;52.272;8.052;2022-07-05T14:05:51;25.20;50.80
40960;DHT22;27842;52.272;8.052;2022-07-05T14:08:16;25.40;50.80
40960;DHT22;27842;52.272;8.052;2022-07-05T14:10:51;25.50;50.80
40960;DHT22;27842;52.272;8.052;2022-07-05T14:13:18;25.80;49.90
40960;DHT22;27842;52.272;8.052;2022-07-05T14:15:45;26.00;50.10
40960;DHT22;27842;52.272;8.052;2022-07-05T14:18:11;26.00;49.90
40960;DHT22;27842;52.272;8.052;2022-07-05T14:20:37;26.00;50.00
40960;DHT22;27842;52.272;8.052;2022-07-05T14:23:03;25.80;50.00
40960;DHT22;27842;52.272;8.052;2022-07-05T14:25:28;25.80;50.20
40960;DHT22;27842;52.272;8.052;2022-07-05T14:27:54;25.70;50.30
40960;DHT22;27842;52.272;8.052;2022-07-05T14:30:19;25.60;50.30
40960;DHT22;27842;52.272;8.052;2022-07-05T14:32:48;25.40;50.50
40960;DHT22;27842;52.272;8.052;2022-07-05T14:35:15;25.30;50.60
40960;DHT22;27842;52.272;8.052;2022-07-05T14:37:40;25.20;50.90
40960;DHT22;27842;52.272;8.052;2022-07-05T14:40:06;25.30;51.00
40960;DHT22;27842;52.272;8.052;2022-07-05T14:42:33;25.30;51.20
40960;DHT22;27842;52.272;8.052;2022-07-05T14:44:58;25.30;51.30
40960;DHT22;27842;52.272;8.052;2022-07-05T14:47:24;25.30;51.30
40960;DHT22;27842;52.272;8.052;2022-07-05T14:49:52;25.20;51.50
40960;DHT22;27842;52.272;8.052;2022-07-05T14:52:19;25.10;51.20
40960;DHT22;27842;52.272;8.052;2022-07-05T14:54:45;25.00;51.50
40960;DHT22;27842;52.272;8.052;2022-07-05T14:57:11;24.90;51.70
40960;DHT22;27842;52.272;8.052;2022-07-05T14:59:36;24.90;51.70
40960;DHT22;27842;52.272;8.052;2022-07-05T15:02:02;24.90;51.80
40960;DHT22;27842;52.272;8.052;2022-07-05T15:04:29;25.00;51.80
40960;DHT22;27842;52.272;8.052;2022-07-05T15:06:55;25.00;51.90
40960;DHT22;27842;52.272;8.052;2022-07-05T15:09:20;25.10;51.90
40960;DHT22;27842;52.272;8.052;2022-07-05T15:11:46;25.00;52.00
40960;DHT22;27842;52.272;8.052;2022-07-05T15:14:12;24.90;52.10
40960;DHT22;27842;52.272;8.052;2022-07-05T15:16:37;24.80;52.20
40960;DHT22;27842;52.272;8.052;2022-07-05T15:19:03;24.80;52.40
40960;DHT22;27842;52.272;8.052;2022-07-05T15:21:28;24.70;52.40
40960;DHT22;27842;52.272;8.052;2022-07-05T15:23:54;24.60;52.70
40960;DHT22;27842;52.272;8.052;2022-07-05T15:26:21;24.50;52.80
40960;DHT22;27842;52.272;8.052;2022-07-05T15:28:47;24.50;53.00
40960;DHT22;27842;52.272;8.052;2022-07-05T15:31:12;24.50;53.00
40960;DHT22;27842;52.272;8.052;2022-07-05T15:33:38;24.50;53.20
40960;DHT22;27842;52.272;8.052;2022-07-05T15:36:03;24.60;53.10
40960;DHT22;27842;52.272;8.052;2022-07-05T15:38:29;24.70;52.90
40960;DHT22;27842;52.272;8.052;2022-07-05T15:40:56;24.70;52.90
40960;DHT22;27842;52.272;8.052;2022-07-05T15:43:22;24.80;53.00
40960;DHT22;27842;52.272;8.052;2022-07-05T15:45:51;24.70;53.00
40960;DHT22;27842;52.272;8.052;2022-07-05T15:48:19;24.70;53.20
40960;DHT22;27842;52.272;8.052;2022-07-05T15:50:44;24.70;52.90
40960;DHT22;27842;52.272;8.052;2022-07-05T15:53:10;24.60;53.10